sensor_id;sensor_type;location;lat;lon;timestamp;temperature;humidity
19385;DHT22;9828;54.122;17.974;2022-09-09T00:24:34;15.70;1.00
19385;DHT22;9828;54.122;17.974;2022-09-09T00:30:26;15.70;1.00
19385;DHT22;9828;54.122;17.974;2022-09-09T00:35:58;15.70;1.00
19385;DHT22;9828;54.122;17.974;2022-09-09T00:58:34;15.60;1.00
19385;DHT22;9828;54.122;17.974;2022-09-09T01:03:57;15.60;1.00
19385;DHT22;9828;54.122;17.974;2022-09-09T01:09:32;15.50;1.00
19385;DHT22;9828;54.122;17.974;2022-09-09T01:15:17;15.50;1.00
19385;DHT22;9828;54.122;17.974;2022-09-09T01:32:37;15.50;99.90
19385;DHT22;9828;54.122;17.974;2022-09-09T01:37:41;15.50;1.00
19385;DHT22;9828;54.122;17.974;2022-09-09T01:43:03;15.30;1.00
19385;DHT22;9828;54.122;17.974;2022-09-09T01:53:55;14.80;99.90
19385;DHT22;9828;54.122;17.974;2022-09-09T01:59:42;14.60;1.00
19385;DHT22;9828;54.122;17.974;2022-09-09T02:05:41;14.30;1.00
19385;DHT22;9828;54.122;17.974;2022-09-09T02:11:18;13.90;1.00
19385;DHT22;9828;54.122;17.974;2022-09-09T02:16:56;13.90;1.00
19385;DHT22;9828;54.122;17.974;2022-09-09T02:22:31;13.60;1.00
19385;DHT22;9828;54.122;17.974;2022-09-09T02:27:56;13.70;1.00
19385;DHT22;9828;54.122;17.974;2022-09-09T02:33:26;13.70;36.30
19385;DHT22;9828;54.122;17.974;2022-09-09T02:38:48;13.60;99.90
19385;DHT22;9828;54.122;17.974;2022-09-09T02:44:15;13.60;99.90
19385;DHT22;9828;54.122;17.974;2022-09-09T02:55:41;13.50;99.90
19385;DHT22;9828;54.122;17.974;2022-09-09T03:01:05;13.40;99.90
19385;DHT22;9828;54.122;17.974;2022-09-09T03:06:27;13.30;99.90
19385;DHT22;9828;54.122;17.974;2022-09-09T03:12:00;13.20;99.90
19385;DHT22;9828;54.122;17.974;2022-09-09T03:22:48;13.00;99.90
19385;DHT22;9828;54.122;17.974;2022-09-09T03:28:09;13.00;99.90
19385;DHT22;9828;54.122;17.974;2022-09-09T03:33:32;12.80;99.90
19385;DHT22;9828;54.122;17.974;2022-09-09T03:38:58;12.70;99.90
19385;DHT22;9828;54.122;17.974;2022-09-09T03:44:23;12.80;99.90
19385;DHT22;9828;54.122;17.974;2022-09-09T03:49:44;12.70;99.90
19385;DHT22;9828;54.122;17.974;2022-09-09T03:55:07;12.60;99.90
19385;DHT22;9828;54.122;17.974;2022-09-09T04:00:29;12.60;99.90
19385;DHT22;9828;54.122;17.974;2022-09-09T04:05:52;12.60;99.90
19385;DHT22;9828;54.122;17.974;2022-09-09T04:11:16;12.60;99.90
19385;DHT22;9828;54.122;17.974;2022-09-09T04:16:39;12.60;99.90
19385;DHT22;9828;54.122;17.974;2022-09-09T04:22:05;12.60;99.90
19385;DHT22;9828;54.122;17.974;2022-09-09T04:27:27;12.60;99.90
19385;DHT22;9828;54.122;17.974;2022-09-09T04:32:48;12.60;99.90
19385;DHT22;9828;54.122;17.974;2022-09-09T04:38:09;12.50;99.90
19385;DHT22;9828;54.122;17.974;2022-09-09T04:43:30;12.60;99.90
19385;DHT22;9828;54.122;17.974;2022-09-09T04:48:54;12.60;99.90
19385;DHT22;9828;54.122;17.974;2022-09-09T04:54:20;12.40;99.90
19385;DHT22;9828;54.122;17.974;2022-09-09T04:59:43;12.50;99.90
19385;DHT22;9828;54.122;17.974;2022-09-09T05:05:06;12.50;99.90
19385;DHT22;9828;54.122;17.974;2022-09-09T05:10:28;12.40;99.90
19385;DHT22;9828;54.122;17.974;2022-09-09T05:15:52;12.60;99.90
19385;DHT22;9828;54.122;17.974;2022-09-09T05:21:16;12.60;99.90
19385;DHT22;9828;54.122;17.974;2022-09-09T05:26:37;12.60;99.90
19385;DHT22;9828;54.122;17.974;2022-09-09T05:32:01;12.60;99.90
19385;DHT22;9828;54.122;17.974;2022-09-09T05:37:22;12.70;99.90
19385;DHT22;9828;54.122;17.974;2022-09-09T05:42:44;12.70;99.90
19385;DHT22;9828;54.122;17.974;2022-09-09T05:48:05;12.60;99.90
19385;DHT22;9828;54.122;17.974;2022-09-09T05:53:29;12.60;99.90
19385;DHT22;9828;54.122;17.974;2022-09-09T05:58:55;12.60;99.90
19385;DHT22;9828;54.122;17.974;2022-09-09T06:04:17;12.70;99.90
19385;DHT22;9828;54.122;17.974;2022-09-09T06:09:39;12.60;99.90
19385;DHT22;9828;54.122;17.974;2022-09-09T06:15:00;12.60;99.90
19385;DHT22;9828;54.122;17.974;2022-09-09T06:20:22;12.60;99.90
19385;DHT22;9828;54.122;17.974;2022-09-09T06:25:44;12.60;99.90
19385;DHT22;9828;54.122;17.974;2022-09-09T06:31:08;12.60;99.90
19385;DHT22;9828;54.122;17.974;2022-09-09T06:36:33;12.70;99.90
19385;DHT22;9828;54.122;17.974;2022-09-09T06:41:55;12.80;99.90
19385;DHT22;9828;54.122;17.974;2022-09-09T06:47:41;12.70;99.90
19385;DHT22;9828;54.122;17.974;2022-09-09T06:53:03;12.80;99.90
19385;DHT22;9828;54.122;17.974;2022-09-09T06:58:24;12.90;99.90
19385;DHT22;9828;54.122;17.974;2022-09-09T07:03:49;12.80;99.90
19385;DHT22;9828;54.122;17.974;2022-09-09T07:09:15;12.70;99.90
19385;DHT22;9828;54.122;17.974;2022-09-09T07:14:39;12.90;99.90
19385;DHT22;9828;54.122;17.974;2022-09-09T07:20:03;12.80;99.90
19385;DHT22;9828;54.122;17.974;2022-09-09T07:25:26;12.90;99.90
19385;DHT22;9828;54.122;17.974;2022-09-09T07:31:02;13.00;99.90
19385;DHT22;9828;54.122;17.974;2022-09-09T07:36:36;13.00;99.90
19385;DHT22;9828;54.122;17.974;2022-09-09T07:42:00;13.00;99.90
19385;DHT22;9828;54.122;17.974;2022-09-09T07:47:22;13.00;99.90
19385;DHT22;9828;54.122;17.974;2022-09-09T07:52:45;13.10;99.90
19385;DHT22;9828;54.122;17.974;2022-09-09T07:58:08;13.00;99.90
19385;DHT22;9828;54.122;17.974;2022-09-09T08:03:29;13.10;99.90
19385;DHT22;9828;54.122;17.974;2022-09-09T08:08:51;13.00;99.90
19385;DHT22;9828;54.122;17.974;2022-09-09T08:14:14;13.00;99.90
19385;DHT22;9828;54.122;17.974;2022-09-09T08:19:36;13.00;99.90
19385;DHT22;9828;54.122;17.974;2022-09-09T08:25:03;13.10;99.90
19385;DHT22;9828;54.122;17.974;2022-09-09T08:30:29;13.20;99.90
19385;DHT22;9828;54.122;17.974;2022-09-09T08:35:51;13.20;99.90
19385;DHT22;9828;54.122;17.974;2022-09-09T08:52:37;13.20;99.90
19385;DHT22;9828;54.122;17.974;2022-09-09T08:58:09;13.10;99.90
19385;DHT22;9828;54.122;17.974;2022-09-09T09:09:17;13.10;99.90
19385;DHT22;9828;54.122;17.974;2022-09-09T09:14:43;13.20;99.90
19385;DHT22;9828;54.122;17.974;2022-09-09T09:20:13;13.20;99.90
19385;DHT22;9828;54.122;17.974;2022-09-09T09:25:40;13.40;99.90
19385;DHT22;9828;54.122;17.974;2022-09-09T09:31:09;13.50;99.90
19385;DHT22;9828;54.122;17.974;2022-09-09T09:36:57;13.50;99.90
19385;DHT22;9828;54.122;17.974;2022-09-09T09:42:23;13.60;99.90
19385;DHT22;9828;54.122;17.974;2022-09-09T09:48:04;13.60;99.90
19385;DHT22;9828;54.122;17.974;2022-09-09T09:53:30;13.60;99.90
19385;DHT22;9828;54.122;17.974;2022-09-09T09:58:54;13.60;99.90
19385;DHT22;9828;54.122;17.974;2022-09-09T10:04:23;13.50;99.90
19385;DHT22;9828;54.122;17.974;2022-09-09T10:09:54;13.50;99.90
19385;DHT22;9828;54.122;17.974;2022-09-09T10:26:28;13.70;99.90
19385;DHT22;9828;54.122;17.974;2022-09-09T11:00:21;13.90;99.90
19385;DHT22;9828;54.122;17.974;2022-09-09T11:05:52;13.90;99.90
19385;DHT22;9828;54.122;17.974;2022-09-09T11:11:42;13.90;99.90
19385;DHT22;9828;54.122;17.974;2022-09-09T11:17:38;13.80;99.90
19385;DHT22;9828;54.122;17.974;2022-09-09T11:23:00;13.90;99.90
19385;DHT22;9828;54.122;17.974;2022-09-09T11:28:32;13.90;99.90
19385;DHT22;9828;54.122;17.974;2022-09-09T11:40:16;13.90;99.90
19385;DHT22;9828;54.122;17.974;2022-09-09T11:45:41;14.00;99.90
19385;DHT22;9828;54.122;17.974;2022-09-09T11:51:12;14.10;99.90
19385;DHT22;9828;54.122;17.974;2022-09-09T11:56:44;14.10;99.90
19385;DHT22;9828;54.122;17.974;2022-09-09T12:02:18;14.20;99.90
19385;DHT22;9828;54.122;17.974;2022-09-09T12:07:55;14.20;99.90
19385;DHT22;9828;54.122;17.974;2022-09-09T12:13:20;14.20;99.90
19385;DHT22;9828;54.122;17.974;2022-09-09T12:18:45;14.20;99.90
19385;DHT22;9828;54.122;17.974;2022-09-09T12:24:33;14.20;99.90
19385;DHT22;9828;54.122;17.974;2022-09-09T12:30:04;14.10;99.90
19385;DHT22;9828;54.122;17.974;2022-09-09T12:35:31;14.10;99.90
19385;DHT22;9828;54.122;17.974;2022-09-09T12:40:57;14.20;99.90
19385;DHT22;9828;54.122;17.974;2022-09-09T12:46:45;14.30;99.90
19385;DHT22;9828;54.122;17.974;2022-09-09T12:52:16;14.50;99.90
19385;DHT22;9828;54.122;17.974;2022-09-09T12:57:39;14.60;99.90
19385;DHT22;9828;54.122;17.974;2022-09-09T13:03:14;14.60;99.90
19385;DHT22;9828;54.122;17.974;2022-09-09T13:08:37;14.50;99.90
19385;DHT22;9828;54.122;17.974;2022-09-09T13:13:59;14.50;99.90
19385;DHT22;9828;54.122;17.974;2022-09-09T13:19:20;14.60;99.90
19385;DHT22;9828;54.122;17.974;2022-09-09T13:24:42;14.50;99.90
19385;DHT22;9828;54.122;17.974;2022-09-09T13:41:09;14.70;99.90
19385;DHT22;9828;54.122;17.974;2022-09-09T13:52:09;14.80;99.90
19385;DHT22;9828;54.122;17.974;2022-09-09T13:57:30;14.90;99.90
19385;DHT22;9828;54.122;17.974;2022-09-09T14:02:51;14.80;99.90
19385;DHT22;9828;54.122;17.974;2022-09-09T14:08:24;14.70;99.90
19385;DHT22;9828;54.122;17.974;2022-09-09T14:13:48;14.70;99.90
19385;DHT22;9828;54.122;17.974;2022-09-09T14:19:10;14.80;99.90
19385;DHT22;9828;54.122;17.974;2022-09-09T14:24:33;14.80;99.90
19385;DHT22;9828;54.122;17.974;2022-09-09T14:29:55;14.80;99.90
19385;DHT22;9828;54.122;17.974;2022-09-09T14:35:16;14.90;99.90
19385;DHT22;9828;54.122;17.974;2022-09-09T14:40:39;15.00;99.90
19385;DHT22;9828;54.122;17.974;2022-09-09T14:46:13;15.10;99.90
19385;DHT22;9828;54.122;17.974;2022-09-09T14:51:35;15.30;99.90
19385;DHT22;9828;54.122;17.974;2022-09-09T14:56:57;15.60;99.90
19385;DHT22;9828;54.122;17.974;2022-09-09T15:02:18;15.70;99.90
19385;DHT22;9828;54.122;17.974;2022-09-09T15:07:39;15.70;99.90
19385;DHT22;9828;54.122;17.974;2022-09-09T15:13:01;15.50;99.90
19385;DHT22;9828;54.122;17.974;2022-09-09T15:18:22;15.50;99.90
19385;DHT22;9828;54.122;17.974;2022-09-09T15:23:43;15.50;99.90
19385;DHT22;9828;54.122;17.974;2022-09-09T15:29:05;15.40;99.90
19385;DHT22;9828;54.122;17.974;2022-09-09T15:34:26;15.40;99.90
19385;DHT22;9828;54.122;17.974;2022-09-09T15:39:47;15.40;99.90
19385;DHT22;9828;54.122;17.974;2022-09-09T15:45:09;15.50;99.90
19385;DHT22;9828;54.122;17.974;2022-09-09T15:50:31;15.30;99.90
19385;DHT22;9828;54.122;17.974;2022-09-09T15:55:55;15.20;99.90
19385;DHT22;9828;54.122;17.974;2022-09-09T16:01:16;15.10;99.90
19385;DHT22;9828;54.122;17.974;2022-09-09T16:06:38;15.00;99.90
19385;DHT22;9828;54.122;17.974;2022-09-09T16:12:02;14.90;99.90
19385;DHT22;9828;54.122;17.974;2022-09-09T16:22:45;14.90;99.90
19385;DHT22;9828;54.122;17.974;2022-09-09T16:28:06;14.80;99.90
19385;DHT22;9828;54.122;17.974;2022-09-09T16:33:28;14.80;99.90
19385;DHT22;9828;54.122;17.974;2022-09-09T16:38:57;14.80;99.90
19385;DHT22;9828;54.122;17.974;2022-09-09T16:44:18;14.80;99.90
19385;DHT22;9828;54.122;17.974;2022-09-09T16:49:40;14.70;99.90
19385;DHT22;9828;54.122;17.974;2022-09-09T16:55:02;14.60;99.90
19385;DHT22;9828;54.122;17.974;2022-09-09T17:00:23;14.60;99.90
19385;DHT22;9828;54.122;17.974;2022-09-09T17:05:44;14.60;99.90
19385;DHT22;9828;54.122;17.974;2022-09-09T17:11:16;14.60;99.90
19385;DHT22;9828;54.122;17.974;2022-09-09T17:16:39;14.60;99.90
19385;DHT22;9828;54.122;17.974;2022-09-09T17:22:02;14.50;99.90
19385;DHT22;9828;54.122;17.974;2022-09-09T17:27:35;14.60;99.90
19385;DHT22;9828;54.122;17.974;2022-09-09T17:32:56;14.60;99.90
19385;DHT22;9828;54.122;17.974;2022-09-09T17:38:18;14.60;99.90
19385;DHT22;9828;54.122;17.974;2022-09-09T17:43:40;14.60;99.90
19385;DHT22;9828;54.122;17.974;2022-09-09T17:49:04;14.50;99.90
19385;DHT22;9828;54.122;17.974;2022-09-09T17:54:25;14.50;99.90
19385;DHT22;9828;54.122;17.974;2022-09-09T17:59:46;14.50;99.90
19385;DHT22;9828;54.122;17.974;2022-09-09T18:05:08;14.50;99.90
19385;DHT22;9828;54.122;17.974;2022-09-09T18:10:29;14.50;99.90
19385;DHT22;9828;54.122;17.974;2022-09-09T18:15:51;14.50;99.90
19385;DHT22;9828;54.122;17.974;2022-09-09T18:21:14;14.30;99.90
19385;DHT22;9828;54.122;17.974;2022-09-09T18:26:36;14.40;99.90
19385;DHT22;9828;54.122;17.974;2022-09-09T18:31:57;14.40;99.90
19385;DHT22;9828;54.122;17.974;2022-09-09T18:37:19;14.50;99.90
19385;DHT22;9828;54.122;17.974;2022-09-09T18:42:41;14.50;99.90
19385;DHT22;9828;54.122;17.974;2022-09-09T18:48:03;14.40;99.90
19385;DHT22;9828;54.122;17.974;2022-09-09T18:53:25;14.50;99.90
19385;DHT22;9828;54.122;17.974;2022-09-09T18:58:51;14.40;99.90
19385;DHT22;9828;54.122;17.974;2022-09-09T19:04:13;14.50;99.90
19385;DHT22;9828;54.122;17.974;2022-09-09T19:09:35;14.50;99.90
19385;DHT22;9828;54.122;17.974;2022-09-09T19:14:56;14.50;99.90
19385;DHT22;9828;54.122;17.974;2022-09-09T19:20:18;14.50;99.90
19385;DHT22;9828;54.122;17.974;2022-09-09T19:25:43;14.50;99.90
19385;DHT22;9828;54.122;17.974;2022-09-09T19:31:07;14.40;99.90
19385;DHT22;9828;54.122;17.974;2022-09-09T19:36:28;14.40;99.90
19385;DHT22;9828;54.122;17.974;2022-09-09T19:41:51;14.40;99.90
19385;DHT22;9828;54.122;17.974;2022-09-09T19:47:12;14.40;99.90
19385;DHT22;9828;54.122;17.974;2022-09-09T19:52:34;14.40;99.90
19385;DHT22;9828;54.122;17.974;2022-09-09T19:57:56;14.40;99.90
19385;DHT22;9828;54.122;17.974;2022-09-09T20:03:17;14.40;99.90
19385;DHT22;9828;54.122;17.974;2022-09-09T20:08:40;14.30;99.90
19385;DHT22;9828;54.122;17.974;2022-09-09T20:14:01;14.40;99.90
19385;DHT22;9828;54.122;17.974;2022-09-09T20:19:23;14.30;99.90
19385;DHT22;9828;54.122;17.974;2022-09-09T20:24:45;14.30;99.90
19385;DHT22;9828;54.122;17.974;2022-09-09T20:30:07;14.30;99.90
19385;DHT22;9828;54.122;17.974;2022-09-09T20:35:28;14.30;99.90
19385;DHT22;9828;54.122;17.974;2022-09-09T20:40:51;14.20;99.90
19385;DHT22;9828;54.122;17.974;2022-09-09T20:46:12;14.20;99.90
19385;DHT22;9828;54.122;17.974;2022-09-09T20:51:34;14.20;99.90
19385;DHT22;9828;54.122;17.974;2022-09-09T20:56:56;14.20;99.90
19385;DHT22;9828;54.122;17.974;2022-09-09T21:02:19;14.30;99.90
19385;DHT22;9828;54.122;17.974;2022-09-09T21:07:41;14.20;99.90
19385;DHT22;9828;54.122;17.974;2022-09-09T21:13:04;14.20;99.90
19385;DHT22;9828;54.122;17.974;2022-09-09T21:18:25;14.10;99.90
19385;DHT22;9828;54.122;17.974;2022-09-09T21:23:54;14.00;99.90
19385;DHT22;9828;54.122;17.974;2022-09-09T21:29:16;14.00;99.90
19385;DHT22;9828;54.122;17.974;2022-09-09T21:34:37;14.00;99.90
19385;DHT22;9828;54.122;17.974;2022-09-09T21:39:58;14.00;99.90
19385;DHT22;9828;54.122;17.974;2022-09-09T21:45:19;14.00;99.90
19385;DHT22;9828;54.122;17.974;2022-09-09T21:50:47;14.10;99.90
19385;DHT22;9828;54.122;17.974;2022-09-09T21:56:14;14.00;99.90
19385;DHT22;9828;54.122;17.974;2022-09-09T22:01:36;14.10;99.90
19385;DHT22;9828;54.122;17.974;2022-09-09T22:06:57;14.00;99.90
19385;DHT22;9828;54.122;17.974;2022-09-09T22:12:18;14.00;99.90
19385;DHT22;9828;54.122;17.974;2022-09-09T22:17:41;13.90;99.90
19385;DHT22;9828;54.122;17.974;2022-09-09T22:23:02;13.90;99.90
19385;DHT22;9828;54.122;17.974;2022-09-09T22:28:23;13.90;99.90
19385;DHT22;9828;54.122;17.974;2022-09-09T22:33:46;13.90;99.90
19385;DHT22;9828;54.122;17.974;2022-09-09T22:39:07;13.80;99.90
19385;DHT22;9828;54.122;17.974;2022-09-09T22:44:28;13.60;99.90
19385;DHT22;9828;54.122;17.974;2022-09-09T22:49:50;13.60;99.90
19385;DHT22;9828;54.122;17.974;2022-09-09T22:55:11;13.50;99.90
19385;DHT22;9828;54.122;17.974;2022-09-09T23:00:33;13.60;99.90
19385;DHT22;9828;54.122;17.974;2022-09-09T23:05:56;13.70;99.90
19385;DHT22;9828;54.122;17.974;2022-09-09T23:11:36;13.60;99.90
19385;DHT22;9828;54.122;17.974;2022-09-09T23:17:17;13.50;99.90
19385;DHT22;9828;54.122;17.974;2022-09-09T23:22:57;13.50;99.90
19385;DHT22;9828;54.122;17.974;2022-09-09T23:28:38;13.50;99.90
19385;DHT22;9828;54.122;17.974;2022-09-09T23:34:21;13.40;99.90
19385;DHT22;9828;54.122;17.974;2022-09-09T23:40:01;13.50;99.90
19385;DHT22;9828;54.122;17.974;2022-09-09T23:45:23;13.50;99.90
19385;DHT22;9828;54.122;17.974;2022-09-09T23:50:44;13.40;99.90
19385;DHT22;9828;54.122;17.974;2022-09-09T23:56:05;13.50;99.90
